Allendorf, Iowa
Current Conditions -  °F | °C
As of 12:35 PM on Monday 20 Oct 2014 (Local Time) from KSHL Reporting Station
Clear Clear  
Wind Chill: 66°   Ceiling: Unl
Heat Index: 66°   Visibility: 10mi
Dew Point: 41°   Wind: 9mph
Humidity: 40%   Direction: 330°NNW
Pressure: 30.06"   Gusts: NA
Location:  43.41°N, 95.64°W
Report Text: KSHL 201735Z AUTO 33008KT 10SM CLR 19/05 A3006 RMK AO2
Loading
Personal Weather Stations






























Interactive Weather Map
Tropical Storm Tracking
New forecast layout! Learn more

10-Day Weather Forecast

Advertisements
Track Severe Weather on mobile